KMRF/MRF METAR and TAF weather

Enter ICAO airport designator
Station Type Date Time Source
KMRF METAR 2021/01/27 13:56 UTC NOAA

KMRF 271356Z AUTO 10006KT 10SM CLR M03/M09 A3030 RMK AO2 WSHFT 1250 SLP268 T10281089 FZRANO


Station Type Date Time Source
KMRF Decoded METAR 2021/01/27 13:56 UTC NOAA

Marfa, TX, United States (KMRF) 30-22N 104-01W 1481M
Jan 27, 2021 - 08:56 AM EST / 2021.01.27 1356 UTC
Wind: from the E (100 degrees) at 7 MPH (6 KT):0
Visibility: 10 mile(s):0
Sky conditions: clear
Temperature: 27.0 F (-2.8 C)
Windchill: 19 F (-7 C):1
Dew Point: 16.0 F (-8.9 C)
Relative Humidity: 62%
Pressure (altimeter): 30.3 in. Hg (1026 hPa)
ob: KMRF 271356Z AUTO 10006KT 10SM CLR M03/M09 A3030 RMK AO2 WSHFT 1250 SLP268 T10281089 FZRANO
cycle: 14

Station Type Date Time Source
KMRF TAF UTC NOAA

Error!

Example: see airport list